createdAt,value
2023-02-14T00:02:08.610Z,5.23
2023-02-14T00:04:35.237Z,5.19
2023-02-14T00:07:01.828Z,5.17
2023-02-14T00:09:28.451Z,5.13
2023-02-14T00:12:01.114Z,5.10
2023-02-14T00:14:31.184Z,5.03
2023-02-14T00:16:57.876Z,5.10
2023-02-14T00:19:29.342Z,5.07
2023-02-14T00:22:00.362Z,5.02
2023-02-14T00:24:27.591Z,5.03
2023-02-14T00:27:05.734Z,5.02
2023-02-14T00:29:33.358Z,5.08
2023-02-14T00:32:00.825Z,5.03
2023-02-14T00:34:30.570Z,4.92
2023-02-14T00:36:57.125Z,4.96
2023-02-14T00:39:23.695Z,4.95
2023-02-14T00:41:50.404Z,4.95
2023-02-14T00:44:20.479Z,4.91
2023-02-14T00:46:47.097Z,4.89
2023-02-14T00:49:13.730Z,4.95
2023-02-14T00:51:54.239Z,4.88
2023-02-14T00:54:23.961Z,4.92
2023-02-14T00:56:54.241Z,4.86
2023-02-14T00:59:20.835Z,4.82
2023-02-14T01:01:47.466Z,4.82
2023-02-14T01:04:19.435Z,4.81
2023-02-14T01:09:29.184Z,4.70
2023-02-14T01:11:57.384Z,4.95
2023-02-14T01:14:28.276Z,4.97
2023-02-14T01:17:05.803Z,4.90
2023-02-14T01:19:35.165Z,4.88
2023-02-14T01:22:01.819Z,4.78
2023-02-14T01:24:35.201Z,4.76
2023-02-14T01:27:01.781Z,4.66
2023-02-14T01:29:29.690Z,4.65
2023-02-14T01:31:56.362Z,4.65
2023-02-14T01:34:23.081Z,4.63
2023-02-14T01:36:49.671Z,4.64
2023-02-14T01:39:20.737Z,4.58
2023-02-14T01:41:53.243Z,4.57
2023-02-14T01:44:25.581Z,4.52
2023-02-14T01:47:00.337Z,4.68
2023-02-14T01:49:52.591Z,4.68
2023-02-14T01:52:33.356Z,4.66
2023-02-14T01:55:10.656Z,4.56
2023-02-14T01:57:44.225Z,4.55
2023-02-14T02:00:13.550Z,4.48
2023-02-14T02:02:56.803Z,4.45
2023-02-14T02:08:05.198Z,4.48
2023-02-14T02:10:32.051Z,4.49
2023-02-14T02:13:04.869Z,4.48
2023-02-14T02:16:08.164Z,4.46
2023-02-14T02:19:05.940Z,4.47
2023-02-14T02:22:09.274Z,4.54
2023-02-14T02:25:08.996Z,4.43
2023-02-14T02:27:53.816Z,4.42
2023-02-14T02:30:55.947Z,4.41
2023-02-14T02:33:48.110Z,4.42
2023-02-14T02:36:20.485Z,4.36
2023-02-14T02:39:29.773Z,4.33
2023-02-14T02:42:08.449Z,4.36
2023-02-14T02:44:42.966Z,4.31
2023-02-14T02:47:22.564Z,4.30
2023-02-14T02:50:04.038Z,4.30
2023-02-14T02:53:02.779Z,4.27
2023-02-14T02:55:43.826Z,4.27
2023-02-14T02:58:10.502Z,4.23
2023-02-14T03:00:45.815Z,4.41
2023-02-14T03:03:15.070Z,4.41
2023-02-14T03:05:48.206Z,4.37
2023-02-14T03:08:17.593Z,4.31
2023-02-14T03:10:45.238Z,4.41
2023-02-14T03:13:36.459Z,4.40
2023-02-14T03:16:46.307Z,4.37
2023-02-14T03:19:50.714Z,4.32
2023-02-14T03:22:39.898Z,4.31
2023-02-14T03:25:17.937Z,4.29
2023-02-14T03:28:04.609Z,4.18
2023-02-14T03:30:35.907Z,4.14
2023-02-14T03:33:17.220Z,4.15
2023-02-14T03:35:58.407Z,4.18
2023-02-14T03:38:27.847Z,4.21
2023-02-14T03:41:20.148Z,4.20
2023-02-14T03:43:51.524Z,4.25
2023-02-14T03:46:28.188Z,4.18
2023-02-14T03:48:58.072Z,4.15
2023-02-14T03:51:26.302Z,4.17
2023-02-14T03:53:56.835Z,4.13
2023-02-14T03:56:43.312Z,3.97
2023-02-14T03:59:17.364Z,4.02
2023-02-14T04:02:11.475Z,4.03
2023-02-14T04:04:44.198Z,4.07
2023-02-14T04:07:15.214Z,4.12
2023-02-14T04:09:42.557Z,4.15
2023-02-14T04:12:09.581Z,4.12
2023-02-14T04:17:24.112Z,4.09
2023-02-14T04:19:50.958Z,4.05
2023-02-14T04:22:22.942Z,4.08
2023-02-14T04:24:55.762Z,4.06
2023-02-14T04:27:29.587Z,4.14
2023-02-14T04:30:06.347Z,4.07
2023-02-14T04:32:33.010Z,4.03
2023-02-14T04:35:13.089Z,4.01
2023-02-14T04:37:46.033Z,4.14
2023-02-14T04:40:13.041Z,4.14
2023-02-14T04:42:45.774Z,4.12
2023-02-14T04:45:14.217Z,4.05
2023-02-14T04:47:46.358Z,4.05
2023-02-14T04:50:27.585Z,4.11
2023-02-14T04:52:54.285Z,4.06
2023-02-14T04:55:26.108Z,4.01
2023-02-14T04:57:58.991Z,3.98
2023-02-14T05:00:33.210Z,3.89
2023-02-14T05:03:02.891Z,3.87
2023-02-14T05:05:29.455Z,3.93
2023-02-14T05:07:59.675Z,4.04
2023-02-14T05:10:36.012Z,4.12
2023-02-14T05:13:09.984Z,4.06
2023-02-14T05:15:38.473Z,4.01
2023-02-14T05:18:08.472Z,3.94
2023-02-14T05:20:35.122Z,3.98
2023-02-14T05:23:08.042Z,4.07
2023-02-14T05:25:34.819Z,4.07
2023-02-14T05:28:04.397Z,4.08
2023-02-14T05:30:34.236Z,4.10
2023-02-14T05:33:01.372Z,4.09
2023-02-14T05:38:15.125Z,4.13
2023-02-14T05:40:42.678Z,4.13
2023-02-14T05:43:09.983Z,4.14
2023-02-14T05:45:41.675Z,4.14
2023-02-14T05:48:09.770Z,4.07
2023-02-14T05:50:39.424Z,4.09
2023-02-14T05:53:12.907Z,4.15
2023-02-14T05:55:39.584Z,4.14
2023-02-14T05:58:12.748Z,4.01
2023-02-14T06:00:42.042Z,4.07
2023-02-14T06:03:08.959Z,4.09
2023-02-14T06:05:35.897Z,4.03
2023-02-14T06:08:18.444Z,4.01
2023-02-14T06:10:51.223Z,4.09
2023-02-14T06:13:23.289Z,4.06
2023-02-14T06:15:49.874Z,4.02
2023-02-14T06:18:16.525Z,3.94
2023-02-14T06:20:43.092Z,3.95
2023-02-14T06:23:12.379Z,3.98
2023-02-14T06:25:38.930Z,4.02
2023-02-14T06:28:05.538Z,4.05
2023-02-14T06:30:44.825Z,4.12
2023-02-14T06:33:14.721Z,4.13
2023-02-14T06:35:41.509Z,4.10
2023-02-14T06:38:20.825Z,4.14
2023-02-14T06:40:47.417Z,4.18
2023-02-14T06:43:13.989Z,4.13
2023-02-14T06:45:45.538Z,4.14
2023-02-14T06:48:14.264Z,4.17
2023-02-14T06:50:41.460Z,4.23
2023-02-14T06:53:20.469Z,4.37
2023-02-14T06:55:47.438Z,4.37
2023-02-14T06:58:20.085Z,4.35
2023-02-14T07:01:10.249Z,4.38
2023-02-14T07:03:36.872Z,4.40
2023-02-14T07:06:09.498Z,4.36
2023-02-14T07:08:36.715Z,4.41
2023-02-14T07:11:07.599Z,4.45
2023-02-14T07:13:34.183Z,4.51
2023-02-14T07:16:06.999Z,4.62
2023-02-14T07:18:33.682Z,4.75
2023-02-14T07:21:13.460Z,4.83
2023-02-14T07:23:40.054Z,4.92
2023-02-14T07:26:06.642Z,5.01
2023-02-14T07:28:33.210Z,5.10
2023-02-14T07:31:00.923Z,5.28
2023-02-14T07:33:27.770Z,5.45
2023-02-14T07:36:10.103Z,5.81
2023-02-14T07:38:36.523Z,5.92
2023-02-14T07:41:07.054Z,6.01
2023-02-14T07:43:33.784Z,6.07
2023-02-14T07:46:01.922Z,6.17
2023-02-14T07:48:31.056Z,6.26
2023-02-14T07:51:01.817Z,6.78
2023-02-14T07:53:28.664Z,6.90
2023-02-14T07:55:57.632Z,6.91
2023-02-14T07:58:34.061Z,7.00
2023-02-14T08:01:00.992Z,7.11
2023-02-14T08:03:29.879Z,7.26
2023-02-14T08:05:58.996Z,7.37
2023-02-14T08:08:30.905Z,7.47
2023-02-14T08:10:58.851Z,7.56
2023-02-14T08:13:32.753Z,7.83
2023-02-14T08:15:59.476Z,8.18
2023-02-14T08:18:27.005Z,8.01
2023-02-14T08:20:56.747Z,8.15
2023-02-14T08:23:26.659Z,8.23
2023-02-14T08:25:56.430Z,8.32
2023-02-14T08:28:23.444Z,8.75
2023-02-14T08:30:53.681Z,8.89
2023-02-14T08:33:24.431Z,8.62
2023-02-14T08:35:51.611Z,9.13
2023-02-14T08:38:24.996Z,9.02
2023-02-14T08:40:51.640Z,9.07
2023-02-14T08:43:21.712Z,8.96
2023-02-14T08:45:51.543Z,8.66
2023-02-14T08:48:18.129Z,9.16
2023-02-14T08:50:46.753Z,9.22
2023-02-14T08:53:13.703Z,9.04
2023-02-14T08:55:43.238Z,9.10
2023-02-14T08:58:09.853Z,8.98
2023-02-14T09:00:39.823Z,9.06
2023-02-14T09:03:09.362Z,9.02
2023-02-14T09:05:36.010Z,8.70
2023-02-14T09:08:09.981Z,8.74
2023-02-14T09:10:38.924Z,8.80
2023-02-14T09:13:08.295Z,8.74
2023-02-14T09:15:34.875Z,8.90
2023-02-14T09:18:01.680Z,8.76
2023-02-14T09:20:30.886Z,9.17
2023-02-14T09:23:08.686Z,9.18
2023-02-14T09:25:38.424Z,9.15
2023-02-14T09:28:05.880Z,9.09
2023-02-14T09:30:38.255Z,9.46
2023-02-14T09:33:04.837Z,9.39
2023-02-14T09:35:37.538Z,9.30
2023-02-14T09:38:09.702Z,9.48
2023-02-14T09:40:48.217Z,9.62
2023-02-14T09:43:36.581Z,9.32
2023-02-14T09:46:14.757Z,9.50
2023-02-14T09:48:47.916Z,9.68
2023-02-14T09:51:19.480Z,9.67
2023-02-14T09:53:58.836Z,9.78
2023-02-14T09:56:58.886Z,10.13
2023-02-14T09:59:43.726Z,9.99
2023-02-14T10:02:28.500Z,10.07
2023-02-14T10:05:15.776Z,9.85
2023-02-14T10:08:07.283Z,10.07
2023-02-14T10:10:53.626Z,9.80
2023-02-14T10:13:36.482Z,9.69
2023-02-14T10:16:42.185Z,9.82
2023-02-14T10:19:17.845Z,9.83
2023-02-14T10:21:52.403Z,9.93
2023-02-14T10:24:57.820Z,10.15
2023-02-14T10:27:47.925Z,10.15
2023-02-14T10:30:23.421Z,10.02
2023-02-14T10:33:13.527Z,10.15
2023-02-14T10:36:03.273Z,10.18
2023-02-14T10:38:58.269Z,10.26
2023-02-14T10:41:33.229Z,10.20
2023-02-14T10:44:35.327Z,10.30
2023-02-14T10:47:25.395Z,10.32
2023-02-14T10:50:03.417Z,10.29
2023-02-14T10:52:57.192Z,10.56
2023-02-14T10:55:53.737Z,10.62
2023-02-14T10:58:23.735Z,10.67
2023-02-14T11:00:56.889Z,10.61
2023-02-14T11:03:24.199Z,10.69
2023-02-14T11:05:51.665Z,10.75
2023-02-14T11:08:45.372Z,10.95
2023-02-14T11:11:32.658Z,10.77
2023-02-14T11:13:59.331Z,10.99
2023-02-14T11:16:57.962Z,10.82
2023-02-14T11:19:37.116Z,10.91
2023-02-14T11:22:11.903Z,11.02
2023-02-14T11:24:44.322Z,11.07
2023-02-14T11:27:17.309Z,11.10
2023-02-14T11:29:49.454Z,11.08
2023-02-14T11:32:21.658Z,11.13
2023-02-14T11:35:20.973Z,11.08
2023-02-14T11:37:54.425Z,11.30
2023-02-14T11:40:48.235Z,11.24
2023-02-14T11:43:47.074Z,11.31
2023-02-14T11:46:29.924Z,11.41
2023-02-14T11:49:16.283Z,11.37
2023-02-14T11:51:51.063Z,11.31
2023-02-14T11:54:49.859Z,11.43
2023-02-14T11:57:27.319Z,11.54
2023-02-14T12:00:03.704Z,11.49
2023-02-14T12:02:38.790Z,11.80
2023-02-14T12:05:18.776Z,11.77
2023-02-14T12:07:47.205Z,11.66
2023-02-14T12:10:31.734Z,11.85
2023-02-14T12:13:13.634Z,11.83
2023-02-14T12:15:43.209Z,11.79
2023-02-14T12:18:20.333Z,11.85
2023-02-14T12:21:03.811Z,11.78
2023-02-14T12:23:36.390Z,11.79
2023-02-14T12:26:30.684Z,11.89
2023-02-14T12:29:12.778Z,11.98
2023-02-14T12:31:40.110Z,11.99
2023-02-14T12:37:10.672Z,12.06
2023-02-14T12:40:00.771Z,12.00
2023-02-14T12:42:58.036Z,12.33
2023-02-14T12:45:52.261Z,12.29
2023-02-14T12:48:21.568Z,12.26
2023-02-14T12:51:23.111Z,12.13
2023-02-14T12:54:10.950Z,12.23
2023-02-14T12:56:54.892Z,12.32
2023-02-14T12:59:39.865Z,12.55
2023-02-14T13:02:31.011Z,12.55
2023-02-14T13:05:40.632Z,12.52
2023-02-14T13:08:33.377Z,12.46
2023-02-14T13:11:50.295Z,12.37
2023-02-14T13:14:41.873Z,12.36
2023-02-14T13:17:45.769Z,12.54
2023-02-14T13:20:36.718Z,12.65
2023-02-14T13:23:39.719Z,12.50
2023-02-14T13:26:15.587Z,12.41
2023-02-14T13:28:57.081Z,12.32
2023-02-14T13:31:27.441Z,12.32
2023-02-14T13:37:16.414Z,12.30
2023-02-14T13:39:50.792Z,12.26
2023-02-14T13:42:56.141Z,12.36
2023-02-14T13:45:42.146Z,12.40
2023-02-14T13:48:15.856Z,12.28
2023-02-14T13:51:06.039Z,12.39
2023-02-14T13:53:48.450Z,12.45
2023-02-14T13:56:18.866Z,12.44
2023-02-14T13:58:59.947Z,12.31
2023-02-14T14:01:48.732Z,12.45
2023-02-14T14:04:30.921Z,12.33
2023-02-14T14:07:12.664Z,12.27
2023-02-14T14:09:54.900Z,12.50
2023-02-14T14:15:14.586Z,12.41
2023-02-14T14:18:12.995Z,12.34
2023-02-14T14:20:41.928Z,12.47
2023-02-14T14:23:37.186Z,12.51
2023-02-14T14:26:26.629Z,12.77
2023-02-14T14:28:54.370Z,12.79
2023-02-14T14:31:21.467Z,12.68
2023-02-14T14:33:58.051Z,12.68
2023-02-14T14:36:24.869Z,12.56
2023-02-14T14:38:52.953Z,12.57
2023-02-14T14:41:27.819Z,12.69
2023-02-14T14:43:58.045Z,12.61
2023-02-14T14:46:31.253Z,12.48
2023-02-14T14:49:01.765Z,12.56
2023-02-14T14:51:32.697Z,12.65
2023-02-14T14:54:20.259Z,12.60
2023-02-14T14:56:53.547Z,12.56
2023-02-14T14:59:39.797Z,12.48
2023-02-14T15:02:28.287Z,12.55
2023-02-14T15:04:57.011Z,12.51
2023-02-14T15:07:33.891Z,12.62
2023-02-14T15:10:02.863Z,12.47
2023-02-14T15:12:41.231Z,12.46
2023-02-14T15:15:22.056Z,12.45
2023-02-14T15:17:50.986Z,12.37
2023-02-14T15:20:25.922Z,12.35
2023-02-14T15:22:57.165Z,12.35
2023-02-14T15:25:32.576Z,12.42
2023-02-14T15:27:59.910Z,12.43
2023-02-14T15:30:30.208Z,12.49
2023-02-14T15:32:58.352Z,12.55
2023-02-14T15:35:31.983Z,12.56
2023-02-14T15:38:02.573Z,12.36
2023-02-14T15:40:40.190Z,12.28
2023-02-14T15:43:21.551Z,12.15
2023-02-14T15:45:54.692Z,12.36
2023-02-14T15:48:33.705Z,12.25
2023-02-14T15:51:10.162Z,12.11
2023-02-14T15:53:42.891Z,12.00
2023-02-14T15:56:32.466Z,11.99
2023-02-14T15:59:11.454Z,11.96
2023-02-14T16:01:49.234Z,11.86
2023-02-14T16:04:28.496Z,11.75
2023-02-14T16:07:52.327Z,11.79
2023-02-14T16:10:54.000Z,11.87
2023-02-14T16:13:29.534Z,11.79
2023-02-14T16:16:07.515Z,11.55
2023-02-14T16:18:51.058Z,11.54
2023-02-14T16:21:29.619Z,11.55
2023-02-14T16:24:12.620Z,11.42
2023-02-14T16:26:49.189Z,11.31
2023-02-14T16:29:18.209Z,11.42
2023-02-14T16:32:15.619Z,11.40
2023-02-14T16:34:40.827Z,11.32
2023-02-14T16:37:43.821Z,11.12
2023-02-14T16:40:20.397Z,10.99
2023-02-14T16:42:50.445Z,11.08
2023-02-14T16:45:20.840Z,10.96
2023-02-14T16:48:01.211Z,10.90
2023-02-14T16:50:27.838Z,10.81
2023-02-14T16:52:58.771Z,10.78
2023-02-14T16:55:25.407Z,10.76
2023-02-14T16:58:00.389Z,10.73
2023-02-14T17:00:29.397Z,10.70
2023-02-14T17:03:09.558Z,10.79
2023-02-14T17:05:36.293Z,10.72
2023-02-14T17:08:05.055Z,10.72
2023-02-14T17:10:32.707Z,10.64
2023-02-14T17:13:03.719Z,10.57
2023-02-14T17:15:31.077Z,10.53
2023-02-14T17:18:02.935Z,10.50
2023-02-14T17:20:36.575Z,10.55
2023-02-14T17:23:03.413Z,10.49
2023-02-14T17:25:32.762Z,10.57
2023-02-14T17:27:59.347Z,10.58
2023-02-14T17:30:25.953Z,10.55
2023-02-14T17:32:52.574Z,10.48
2023-02-14T17:35:19.434Z,10.34
2023-02-14T17:37:45.994Z,10.27
2023-02-14T17:40:15.194Z,10.21
2023-02-14T17:42:42.060Z,10.39
2023-02-14T17:45:12.413Z,10.69
2023-02-14T17:47:39.988Z,10.50
2023-02-14T17:50:09.652Z,10.37
2023-02-14T17:52:39.257Z,10.23
2023-02-14T17:55:06.711Z,10.13
2023-02-14T17:57:35.581Z,10.07
2023-02-14T18:00:13.829Z,10.14
2023-02-14T18:02:59.329Z,10.09
2023-02-14T18:05:25.976Z,9.98
2023-02-14T18:07:59.080Z,9.94
2023-02-14T18:10:36.036Z,9.85
2023-02-14T18:13:03.710Z,9.76
2023-02-14T18:15:42.018Z,9.73
2023-02-14T18:18:12.123Z,9.59
2023-02-14T18:20:38.884Z,9.49
2023-02-14T18:23:05.520Z,9.37
2023-02-14T18:25:34.905Z,9.33
2023-02-14T18:28:04.214Z,9.35
2023-02-14T18:30:30.810Z,9.29
2023-02-14T18:32:57.393Z,9.20
2023-02-14T18:35:27.676Z,9.20
2023-02-14T18:38:00.540Z,9.18
2023-02-14T18:40:36.831Z,9.00
2023-02-14T18:43:03.847Z,8.98
2023-02-14T18:45:36.660Z,8.95
2023-02-14T18:48:11.810Z,8.92
2023-02-14T18:50:38.671Z,8.89
2023-02-14T18:53:08.406Z,8.86
2023-02-14T18:55:38.765Z,8.78
2023-02-14T18:58:08.275Z,8.70
2023-02-14T19:00:45.973Z,8.70
2023-02-14T19:03:19.053Z,8.72
2023-02-14T19:05:47.861Z,8.70
2023-02-14T19:08:16.984Z,8.65
2023-02-14T19:10:45.829Z,8.64
2023-02-14T19:13:17.488Z,8.59
2023-02-14T19:15:45.221Z,8.55
2023-02-14T19:18:11.781Z,8.47
2023-02-14T19:20:52.346Z,8.44
2023-02-14T19:23:20.024Z,8.42
2023-02-14T19:25:46.746Z,8.39
2023-02-14T19:28:21.174Z,8.34
2023-02-14T19:31:05.171Z,8.38
2023-02-14T19:36:14.954Z,8.34
2023-02-14T19:38:45.956Z,8.32
2023-02-14T19:41:21.899Z,8.32
2023-02-14T19:43:50.024Z,8.24
2023-02-14T19:46:25.422Z,8.21
2023-02-14T19:49:06.550Z,8.15
2023-02-14T19:51:37.627Z,8.05
2023-02-14T19:54:09.725Z,8.03
2023-02-14T19:56:38.326Z,7.98
2023-02-14T19:59:06.839Z,8.03
2023-02-14T20:01:49.820Z,8.00
2023-02-14T20:04:28.498Z,7.95
2023-02-14T20:06:57.540Z,7.97
2023-02-14T20:09:36.043Z,7.85
2023-02-14T20:12:05.669Z,7.82
2023-02-14T20:14:51.372Z,7.77
2023-02-14T20:17:20.924Z,7.76
2023-02-14T20:19:56.761Z,7.72
2023-02-14T20:22:27.398Z,7.74
2023-02-14T20:24:55.827Z,7.72
2023-02-14T20:27:22.488Z,7.72
2023-02-14T20:29:52.450Z,7.74
2023-02-14T20:32:24.953Z,7.77
2023-02-14T20:35:03.578Z,7.76
2023-02-14T20:37:31.599Z,7.74
2023-02-14T20:39:59.328Z,7.64
2023-02-14T20:42:33.030Z,7.74
2023-02-14T20:45:07.706Z,7.75
2023-02-14T20:47:42.746Z,7.89
2023-02-14T20:50:12.231Z,7.95
2023-02-14T20:52:45.446Z,7.94
2023-02-14T20:55:13.301Z,7.92
2023-02-14T20:57:49.076Z,8.04
2023-02-14T21:00:17.586Z,8.07
2023-02-14T21:02:45.254Z,8.10
2023-02-14T21:05:12.021Z,8.01
2023-02-14T21:07:46.204Z,7.95
2023-02-14T21:10:27.162Z,7.98
2023-02-14T21:13:05.756Z,7.99
2023-02-14T21:15:34.743Z,8.00
2023-02-14T21:18:03.647Z,7.92
2023-02-14T21:20:36.762Z,7.83
2023-02-14T21:23:04.160Z,7.91
2023-02-14T21:25:32.281Z,7.85
2023-02-14T21:28:00.517Z,7.89
2023-02-14T21:30:39.668Z,7.79
2023-02-14T21:33:09.075Z,7.76
2023-02-14T21:35:37.303Z,7.79
2023-02-14T21:38:04.389Z,7.78
2023-02-14T21:40:31.207Z,7.70
2023-02-14T21:42:57.946Z,7.75
2023-02-14T21:45:32.343Z,7.67
2023-02-14T21:48:03.202Z,7.79
2023-02-14T21:50:33.150Z,7.67
2023-02-14T21:53:07.263Z,7.75
2023-02-14T21:55:39.037Z,7.65
2023-02-14T21:58:16.373Z,7.56
2023-02-14T22:00:45.104Z,7.60
2023-02-14T22:03:21.394Z,7.42
2023-02-14T22:05:57.476Z,7.57
2023-02-14T22:08:33.183Z,8.18
2023-02-14T22:11:04.355Z,8.02
2023-02-14T22:13:37.493Z,7.84
2023-02-14T22:16:09.008Z,7.66
2023-02-14T22:18:40.299Z,7.52
2023-02-14T22:21:22.147Z,7.49
2023-02-14T22:23:57.610Z,7.44
2023-02-14T22:26:36.249Z,7.37
2023-02-14T22:29:05.603Z,7.25
2023-02-14T22:31:42.505Z,7.25
2023-02-14T22:34:37.916Z,7.19
2023-02-14T22:37:12.066Z,7.19
2023-02-14T22:39:50.324Z,7.12
2023-02-14T22:42:24.917Z,7.08
2023-02-14T22:44:54.265Z,7.07
2023-02-14T22:47:20.877Z,7.05
2023-02-14T22:49:47.439Z,7.04
2023-02-14T22:52:14.028Z,7.02
2023-02-14T22:54:40.618Z,6.99
2023-02-14T22:57:07.282Z,6.96
2023-02-14T22:59:33.845Z,6.96
2023-02-14T23:02:09.642Z,7.01
2023-02-14T23:04:40.655Z,6.98
2023-02-14T23:07:21.880Z,7.04
2023-02-14T23:12:30.111Z,6.88
2023-02-14T23:14:59.570Z,6.93
2023-02-14T23:17:26.116Z,6.88
2023-02-14T23:19:54.968Z,6.84
2023-02-14T23:22:35.884Z,6.80
2023-02-14T23:25:07.119Z,6.78
2023-02-14T23:27:43.630Z,6.73
2023-02-14T23:30:16.891Z,6.72
2023-02-14T23:32:43.924Z,6.71
2023-02-14T23:35:16.753Z,6.60
2023-02-14T23:37:43.347Z,6.53
2023-02-14T23:40:10.365Z,6.50
2023-02-14T23:42:40.023Z,6.54
2023-02-14T23:45:07.088Z,6.59
2023-02-14T23:47:34.491Z,6.48
2023-02-14T23:50:01.125Z,6.41
2023-02-14T23:52:27.670Z,6.42
2023-02-14T23:54:54.236Z,6.48
2023-02-14T23:57:20.800Z,6.45
2023-02-14T23:59:57.405Z,6.47
